Vicentinopolis, Brazil
Current Conditions -  °F | °C
As of 3:00 PM on Monday 22 Dec 2014 (Local Time) from SBGO Reporting Station
Few Clouds Few Clouds  
Wind Chill: 84°   Ceiling: Unl
Heat Index: 86°   Visibility: 6mi
Dew Point: 64°   Wind: 10mph
Humidity: 51%   Direction: 290°WNW
Pressure: 29.94"   Gusts: NA
Location:  17.74°S, 49.8°W
Report Text: SBGO 221700Z 29009KT 9999 FEW035 FEW040TCU 29/18 Q1014
Loading
Personal Weather Stations






























Interactive Weather Map New forecast layout! Learn more

10-Day Weather Forecast

Advertisements
Track Severe Weather on mobile